Tiempo atmosférico en la estación meteorológica de Capdepera, Illes Balears (57 m.)



Fecha
DESCASC
Temp. máxima en grados centígrados (hora)
DESCASC
Temp. mínima en grados centígrados (hora)
DESCASC
Temp. media en grados centígrados
DESCASC
Racha de viento máxima en m/sg (hora)
DESCASC
Velocidad máxima media en intervalos de 10 minutos(hora)
DESCASC
Precipitaciones diarias en mm
DESCASC
Precipitaciones de 00:00 a 06:00 en mm
DESCASC
Precipitaciones de 06:00 a 12:00 en mm
DESCASC
Precipitaciones de 12:00 a 18:00 en mm
DESCASC
Precipitaciones de 18:00 a 24:00 en mm
DESCASC
02-08-2020 29.4 (09:50) 26.4 (23:59) 27.9 11.67 (10:30) 9.44 (10:30) 0 0 0 0 0
01-08-2020 33.8 (14:10) 25.5 (04:00) 29.6 7.5 (04:20) 6.67 (05:40) 0.1 0 0.1 0 0
31-07-2020 32.9 (15:50) 25.7 (05:00) 29.3 5 (08:40) 4.17 (08:40) 0 0 0 0 0
30-07-2020 33.7 (13:50) 26.3 (00:00) 30 5.28 (10:00) 4.72 (10:00) 0 0 0 0 0
29-07-2020 32.5 (13:40) 25.8 (00:00) 29.1 7.22 (06:40) 5.83 (06:40) 0 0 0 0 0
28-07-2020 32.7 (15:40) 25 (00:00) 28.9 6.67 (06:10) 5.83 (13:00) 0 0 0 0 0
27-07-2020 32.6 (14:40) 24.9 (00:00) 28.7 6.11 (17:50) 5.56 (17:50) 0 0 0 0 0
26-07-2020 32.6 (14:30) 24.6 (00:00) 28.6 5.83 (16:30) 5.28 (17:20) 0 0 0 0 0
25-07-2020 31.8 (13:50) 24.7 (00:00) 28.3 6.67 (14:10) 5.83 (16:10) 0 0 0 0 0
24-07-2020 31.8 (13:20) 24.5 (00:00) 28.1 6.94 (08:30) 5.83 (08:30) 0 0 0 0 0
23-07-2020 30.6 (12:10) 25.3 (00:00) 27.9 8.61 (00:40) 7.78 (00:40) 0 0 0 0 0
22-07-2020 30.5 (14:20) 24.5 (00:00) 27.5 12.22 (19:00) 11.11 (19:00) 0 0 0 0 0
21-07-2020 30.4 (14:20) 24.1 (00:00) 27.3 7.78 (21:30) 6.67 (21:30) 0 0 0 0 0
20-07-2020 30.3 (14:00) 23.3 (00:00) 26.8 7.22 (12:00) 6.11 (12:00) 0 0 0 0 0
19-07-2020 30.7 (15:50) 22.7 (00:00) 26.7 7.5 (16:20) 5.83 (20:00) 0 0 0 0 0
18-07-2020 29.7 (14:00) 22.4 (00:00) 26.1 8.33 (16:20) 6.67 (16:30) 0 0 0 0 0
17-07-2020 28.1 (14:10) 22 (00:00) 25.1 7.5 (12:40) 5.83 (12:40) 0 0 0 0 0
16-07-2020 27.7 (14:00) 22.8 (00:00) 25.3 7.5 (07:00) 5.83 (07:00) 0 0 0 0 0
15-07-2020 28.8 (17:00) 20.9 (00:00) 24.8 11.67 (00:20) 6.94 (01:30) 3.6 3.6 0 0 0
14-07-2020 30 (15:20) 24 (00:00) 27 10.28 (23:59) 7.78 (13:10) 0.1 0 0 0 0.1
13-07-2020 29.8 (14:00) 24.3 (00:00) 27 10 (06:50) 8.61 (07:10) 0 0 0 0 0
12-07-2020 29.7 (12:40) 23.5 (04:30) 26.6 8.61 (14:30) 7.22 (14:30) 0 0 0 0 0
11-07-2020 27.6 (10:50) 24.2 (04:40) 25.9 12.22 (09:10) 9.72 (12:50) 0 0 0 0 0
10-07-2020 29.8 (16:10) 24 (00:00) 26.9 16.11 (07:30) 13.61 (07:30) 0 0 0 0 0
09-07-2020 30 (14:10) 24.1 (05:50) 27.1 7.5 (16:40) 6.11 (16:40) 0 0 0 0 0
08-07-2020 30 (13:30) 22.6 (06:30) 26.3 7.78 (16:20) 6.94 (16:20) 0 0 0 0 0

Gráficas

Temp. máximas Temp. mínimas Temp. medias Precipitaciones Rachas de viento máximas Velocidades máximas media en intervalos de 10 minutos

Datos horarios

Fecha y hora oficial Temperatura (ºC) Velocidad del viento (km/h) Dirección del viento Racha (km/h) Dirección de racha Precipitación (mm) Presión (hPa) Tendencia (hPa) Humedad (%)
2020-08-06 23:00:00 25.2 3 Sudoeste 12 Sur 0 -- -- 80
2020-08-06 22:00:00 25.9 9 Sur 14 Sur 0 -- -- 78
2020-08-06 21:00:00 26.2 9 Sur 14 Sur 0 -- -- 77
2020-08-06 20:00:00 26.9 9 Sur 13 Sudeste 0 -- -- 75
2020-08-06 19:00:00 27.6 9 Sur 20 Sur 0 -- -- 71
2020-08-06 18:00:00 29.4 13 Sur 21 Sur 0 -- -- 65
2020-08-06 17:00:00 29.7 15 Sur 21 Sur 0 -- -- 65
2020-08-06 16:00:00 31 13 Sur 16 Sur 0 -- -- 60
2020-08-06 15:00:00 31.2 12 Sur 15 Sur 0 -- -- 61
2020-08-06 14:00:00 28.7 8 Este 12 Este 0 -- -- 71
2020-08-06 13:00:00 29 8 Nordeste 13 Norte 0 -- -- 68
2020-08-06 12:00:00 29.5 8 Norte 13 Norte 0 -- -- 67
2020-08-06 11:00:00 29.3 7 Norte 12 Noroeste 0 -- -- 68
2020-08-06 10:00:00 28.8 6 Norte 10 Noroeste 0 -- -- 70
2020-08-06 09:00:00 28.1 8 Noroeste 11 Noroeste 0 -- -- 73
2020-08-06 08:00:00 25.5 6 Noroeste 10 Noroeste 0 -- -- 85
2020-08-06 07:00:00 24.3 5 Norte 10 Noroeste 0 -- -- 90
2020-08-06 06:00:00 24.4 7 Noroeste 14 Norte 0 -- -- 89
2020-08-06 05:00:00 24.5 10 Norte 16 Noroeste 0 -- -- 87
2020-08-06 04:00:00 24.6 8 Noroeste 18 Noroeste 0 -- -- 86
2020-08-06 03:00:00 24.6 11 Noroeste 15 Noroeste 0 -- -- 83
2020-08-06 02:00:00 24.6 4 Noroeste 10 Noroeste 0 -- -- 76
2020-08-06 01:00:00 24.8 7 Noroeste 14 Oeste 0 -- -- 73
2020-08-06 00:00:00 24.7 6 Oeste 9 Sudoeste 0 -- -- 74
2020-08-05 23:00:00 25 2 Sudoeste 9 Sudoeste 0 -- -- 75
2020-08-05 22:00:00 25.4 3 Sudoeste 17 Sur 0 -- -- 73
2020-08-05 21:00:00 25.8 4 Sudoeste 22 Sur 0 -- -- 70
2020-08-05 20:00:00 26.1 12 Sur 20 Sur 0 -- -- 67
2020-08-05 19:00:00 27.3 15 Sur 20 Sur 0 -- -- 61
2020-08-05 18:00:00 29.1 14 Sur 19 Sur 0 -- -- 53
2020-08-05 17:00:00 29.8 13 Sur 17 Sudeste 0 -- -- 59
2020-08-05 16:00:00 29.2 10 Sudeste 16 Sudeste 0 -- -- 56
2020-08-05 15:00:00 30 12 Sudeste 18 Sur 0 -- -- 52
2020-08-05 14:00:00 30.1 12 Sudeste 16 Sudeste 0 -- -- 51
2020-08-05 13:00:00 29.9 12 Sur 14 Sudeste 0 -- -- 55
2020-08-05 12:00:00 28.8 9 Sudeste -- -- -- -- -- 57
2020-08-05 11:00:00 28.5 6 Este 12 Sudeste 0 -- -- 59
2020-08-05 10:00:00 28.6 6 Este 10 Este 0 -- -- 59
2020-08-05 09:00:00 27.9 0 Calma 12 Oeste 0 -- -- 63
2020-08-05 08:00:00 24.4 11 Oeste 17 Oeste 0 -- -- 75
2020-08-05 07:00:00 22.7 8 Oeste 16 Oeste 0 -- -- 81
2020-08-05 06:00:00 22.7 8 Oeste 13 Oeste 0 -- -- 81
2020-08-05 05:00:00 22.5 6 Sudoeste 15 Sudoeste 0 -- -- 81
2020-08-05 04:00:00 22.6 2 Sudoeste 13 Sur 0 -- -- 79
2020-08-05 03:00:00 22.9 3 Sudoeste 11 Sudoeste 0 -- -- 78
2020-08-05 02:00:00 23 0 Calma 10 Sudoeste 0 -- -- 78
2020-08-05 01:00:00 23.3 0 Calma 11 Sudoeste 0 -- -- 76
2020-08-05 00:00:00 23.5 3 Sudoeste 10 Oeste 0 -- -- 73
2020-08-04 23:00:00 23.6 4 Sudoeste 13 Oeste 0 -- -- 72
2020-08-04 22:00:00 23.9 2 Sudoeste 22 Sur 0 -- -- 71
2020-08-04 21:00:00 24.3 17 Sur 23 Sur 0 -- -- 67
2020-08-04 20:00:00 24.5 12 Sur 18 Sur 0 -- -- 66
2020-08-04 19:00:00 25.3 13 Sur 18 Sur 0 -- -- 62
2020-08-04 18:00:00 25.9 12 Sur 16 Sur 0 -- -- 61
2020-08-04 17:00:00 25.7 7 Sudeste 14 Sudeste 0 -- -- 58
2020-08-04 16:00:00 25.8 8 Este 18 Este 0 -- -- 58
2020-08-04 15:00:00 26.8 11 Nordeste 24 Nordeste 0 -- -- 57
2020-08-04 14:00:00 25.2 17 Nordeste 33 Nordeste 0 -- -- 63
2020-08-04 13:00:00 23.3 26 Nordeste 37 Nordeste 0 -- -- 73
2020-08-04 12:00:00 24.8 19 Norte 28 Nordeste 0 -- -- 68
2020-08-04 11:00:00 22.3 13 Nordeste 28 Nordeste 0.8 -- -- 84
2020-08-04 10:00:00 24.2 20 Nordeste 34 Nordeste 0 -- -- 71
2020-08-04 09:00:00 24.9 23 Nordeste 31 Nordeste 0 -- -- 63
2020-08-04 08:00:00 24.4 23 Nordeste 32 Nordeste 0 -- -- 62
2020-08-04 07:00:00 24.7 20 Nordeste 35 Nordeste 0 -- -- 60
2020-08-04 06:00:00 24.9 27 Nordeste 38 Nordeste 0 -- -- 59
2020-08-04 05:00:00 25 31 Nordeste 47 Nordeste 0 -- -- 56
2020-08-04 04:00:00 25.3 39 Nordeste 45 Nordeste 0 -- -- 55
2020-08-04 03:00:00 25.7 34 Nordeste 46 Nordeste 0 -- -- 55
2020-08-04 02:00:00 25.7 27 Nordeste 33 Nordeste 0 -- -- 56
2020-08-04 01:00:00 25.6 22 Nordeste 26 Nordeste 0 -- -- 57
2020-08-04 00:00:00 25.4 21 Nordeste 28 Nordeste 0 -- -- 59
2020-08-03 23:00:00 25.3 18 Nordeste 25 Nordeste 0 -- -- 59
2020-08-03 22:00:00 25.3 17 Nordeste 24 Nordeste 0 -- -- 59
2020-08-03 21:00:00 25.5 21 Nordeste 31 Nordeste 0 -- -- 59
2020-08-03 20:00:00 25.5 24 Nordeste 31 Nordeste 0 -- -- 62
2020-08-03 19:00:00 25.6 23 Nordeste 31 Norte 0 -- -- 60
2020-08-03 18:00:00 26 24 Norte 32 Nordeste 0 -- -- 62
2020-08-03 17:00:00 26.2 26 Nordeste 35 Norte 0 -- -- 62
2020-08-03 16:00:00 25.6 27 Nordeste 37 Nordeste 0 -- -- 68
2020-08-03 15:00:00 25.8 23 Norte 39 Norte 0 -- -- 68
2020-08-03 14:00:00 24.9 31 Norte 39 Nordeste 0 -- -- 76
2020-08-03 13:00:00 25.7 21 Nordeste 29 Nordeste 0 -- -- 70
2020-08-03 12:00:00 25.1 20 Nordeste 39 Nordeste 0 -- -- 71
2020-08-03 11:00:00 24.9 32 Nordeste 38 Nordeste 0 -- -- 75
2020-08-03 10:00:00 26 31 Nordeste 37 Nordeste 0 -- -- 66
2020-08-03 09:00:00 26 22 Nordeste 33 Nordeste 0 -- -- 70
2020-08-03 08:00:00 25.8 27 Nordeste 36 Nordeste 0 -- -- 71
2020-08-03 07:00:00 25.7 18 Nordeste 26 Nordeste 0 -- -- 78
2020-08-03 06:00:00 25.5 12 Nordeste 18 Este 0 -- -- 81
2020-08-03 05:00:00 25.7 13 Este 19 Este 0 -- -- 81
2020-08-03 04:00:00 25.8 16 Nordeste 21 Nordeste 0 -- -- 77
2020-08-03 03:00:00 26 17 Este 21 Este 0 -- -- 78
2020-08-03 02:00:00 25.9 9 Nordeste 15 Nordeste 0 -- -- 79
2020-08-03 01:00:00 26.2 14 Nordeste 18 Este 0 -- -- 76
2020-08-03 00:00:00 26.4 13 Este 22 Este 0 -- -- 71
2020-08-02 23:00:00 26.8 19 Este 23 Este 0 -- -- 71
2020-08-02 22:00:00 27 17 Nordeste 22 Nordeste 0 -- -- 72
2020-08-02 21:00:00 27.4 15 Nordeste 19 Nordeste 0 -- -- 70
2020-08-02 20:00:00 27.7 16 Nordeste 22 Nordeste 0 -- -- 66
2020-08-02 19:00:00 27.7 19 Nordeste 31 Norte 0 -- -- 70
2020-08-02 18:00:00 27.8 24 Norte 34 Norte 0 -- -- 69
2020-08-02 17:00:00 28.2 30 Norte 37 Norte 0 -- -- 67
2020-08-02 16:00:00 28.5 29 Norte 36 Norte 0 -- -- 68
2020-08-02 15:00:00 28.7 28 Norte 36 Norte 0 -- -- 67
2020-08-02 14:00:00 28.8 31 Norte 39 Norte 0 -- -- 67
2020-08-02 13:00:00 28.6 28 Norte 40 Norte 0 -- -- 70
2020-08-02 12:00:00 28.9 31 Norte 42 Norte 0 -- -- 66
2020-08-02 11:00:00 28.7 32 Norte 42 Nordeste 0 -- -- 69
2020-08-02 10:00:00 29 25 Nordeste 35 Nordeste 0 -- -- 68
2020-08-02 09:00:00 28 27 Nordeste 35 Nordeste 0 -- -- 75
2020-08-02 08:00:00 27.9 20 Nordeste 30 Nordeste 0 -- -- 76
2020-08-02 07:00:00 26.7 20 Nordeste 24 Nordeste 0 -- -- 80
2020-08-02 06:00:00 26.8 15 Nordeste 19 Nordeste 0 -- -- 87
2020-08-02 05:00:00 26.8 11 Nordeste 14 Este 0 -- -- 94
2020-08-02 04:00:00 27 13 Nordeste 32 Nordeste 0 -- -- 94
2020-08-02 03:00:00 27.4 27 Nordeste 34 Nordeste 0 -- -- 95
2020-08-02 02:00:00 27.5 28 Norte 33 Noroeste 0 -- -- 96
2020-08-02 01:00:00 27.6 24 Noroeste 31 Noroeste 0 -- -- 95
2020-08-02 00:00:00 27.7 8 Noroeste 15 Noroeste 0 -- -- 84
2020-08-01 23:00:00 28.1 2 Norte 12 Noroeste 0 -- -- 88
2020-08-01 22:00:00 28.5 3 Noroeste 14 Sur 0 -- -- 78
2020-08-01 21:00:00 28.3 12 Sur 19 Sur 0 -- -- 84
2020-08-01 20:00:00 28.5 12 Sur 24 Sur 0 -- -- 84
2020-08-01 19:00:00 29.6 16 Sur 22 Sur 0 -- -- 83
2020-08-01 18:00:00 30.9 19 Sur 23 Sur 0 -- -- 74
2020-08-01 17:00:00 31.5 21 Sur 24 Sur 0 -- -- 77
2020-08-01 16:00:00 31.9 9 Sur 15 Sudoeste 0 -- -- 70
2020-08-01 15:00:00 32.6 13 Sur 18 Sur 0 -- -- 71
2020-08-01 14:00:00 33.5 12 Sur 18 Sur 0 -- -- 67
2020-08-01 13:00:00 33 10 Sur 13 Sudeste 0 -- -- 68
2020-08-01 12:00:00 31.1 6 Este 10 Este 0 -- -- 76
2020-08-01 11:00:00 30.6 8 Nordeste 11 Nordeste 0 -- -- 81
2020-08-01 10:00:00 30.7 3 Norte 9 Norte 0 -- -- 82
2020-08-01 09:00:00 29.7 3 Este 16 Noroeste 0 -- -- 79
2020-08-01 08:00:00 27.4 10 Norte 20 Norte 0 -- -- 96
2020-08-01 07:00:00 26.3 17 Norte 23 Noroeste 0.1 -- -- 99
2020-08-01 06:00:00 26.5 22 Noroeste 27 Noroeste 0 -- -- 99
2020-08-01 05:00:00 26.4 20 Noroeste 27 Noroeste 0 -- -- --
2020-08-01 04:00:00 25.6 10 Norte 14 Norte 0 -- -- 98
2020-08-01 03:00:00 26.3 2 Sur 7 Oeste 0 -- -- --
2020-08-01 02:00:00 26.3 0 Calma 9 Sudoeste 0 -- -- 99
2020-08-01 01:00:00 26.5 3 Sudoeste 11 Sur 0 -- -- 99
2020-08-01 00:00:00 26.9 6 Sudoeste 13 Sudoeste 0 -- -- 98
2020-07-31 23:00:00 27.2 9 Sur 12 Sur 0 -- -- 96
2020-07-31 22:00:00 27.4 9 Sur 12 Sur 0 -- -- 94
2020-07-31 21:00:00 27.9 8 Sur 11 Sur 0 -- -- 91
2020-07-31 20:00:00 28.5 10 Sur 15 Sur 0 -- -- 87
2020-07-31 19:00:00 29.3 9 Sur 15 Sur 0 -- -- 82
2020-07-31 18:00:00 30.6 12 Sur 15 Sur 0 -- -- 74
2020-07-31 17:00:00 32 13 Sur 16 Sur 0 -- -- 67
2020-07-31 16:00:00 32.6 13 Sur 15 Sur 0 -- -- 62
2020-07-31 15:00:00 31.5 8 Sur 11 Sur 0 -- -- 65
2020-07-31 14:00:00 31.9 6 Sur 10 Sur 0 -- -- 64
2020-07-31 13:00:00 30.9 6 Sur 11 Sur 0 -- -- 72
2020-07-31 12:00:00 32.4 9 Sur 14 Sur 0 -- -- 68
2020-07-31 11:00:00 30.9 13 Sudeste 15 Sudeste 0 -- -- 73
2020-07-31 10:00:00 29.9 6 Sur 14 Este 0 -- -- 79
2020-07-31 09:00:00 29 9 Sudeste 18 Este 0 -- -- 86
2020-07-31 08:00:00 27.6 6 Sudeste 9 Este 0 -- -- 90
2020-07-31 07:00:00 26.2 3 Sudeste 13 Sudeste 0 -- -- 95
2020-07-31 06:00:00 26.2 10 Este 12 Este 0 -- -- 97
2020-07-31 05:00:00 25.7 5 Este 10 Norte 0 -- -- 98
2020-07-31 04:00:00 25.9 7 Norte 9 Norte 0 -- -- 94
2020-07-31 03:00:00 26.1 6 Norte 9 Norte 0 -- -- 94
2020-07-31 02:00:00 26.2 5 Norte 7 Norte 0 -- -- 86
2020-07-31 01:00:00 26.2 0 Calma 7 Sudoeste 0 -- -- 91
2020-07-31 00:00:00 26.8 4 Sudoeste 14 Sur 0 -- -- 91
2020-07-30 23:00:00 27.2 12 Sur 16 Sur 0 -- -- 90
2020-07-30 22:00:00 27.3 13 Sur 17 Sudeste 0 -- -- 88
2020-07-30 21:00:00 27.8 14 Sudeste 16 Sur 0 -- -- 85
2020-07-30 20:00:00 28.4 10 Sur 13 Sur 0 -- -- 82
2020-07-30 19:00:00 29 11 Sudeste 14 Sudeste 0 -- -- 77
2020-07-30 18:00:00 30 8 Sudeste 13 Sur 0 -- -- 72
2020-07-30 17:00:00 30.9 9 Sur 15 Sudeste 0 -- -- 66
2020-07-30 16:00:00 32.2 13 Sur 18 Sudeste 0 -- -- 60
2020-07-30 15:00:00 32.7 15 Sur 19 Sur 0 -- -- 60
2020-07-30 14:00:00 33.3 13 Sur 17 Sur 0 -- -- 56
2020-07-30 13:00:00 32 8 Sudeste 15 Sur 0 -- -- 58
2020-07-30 12:00:00 31.8 4 Nordeste 15 Norte 0 -- -- 59
2020-07-30 11:00:00 31.1 9 Norte 18 Norte 0 -- -- 73
2020-07-30 10:00:00 29.8 17 Norte 19 Norte 0 -- -- 76
2020-07-30 09:00:00 29.4 5 Norte 11 Norte 0 -- -- 72
2020-07-30 08:00:00 28.5 2 Este 10 Sudeste 0 -- -- 79
2020-07-30 07:00:00 26.6 3 Sur 10 Sur 0 -- -- 87
2020-07-30 06:00:00 26.4 3 Sudeste 11 Sudeste 0 -- -- 85
2020-07-30 05:00:00 26.5 6 Sur 9 Sur 0 -- -- 86
2020-07-30 04:00:00 26.6 5 Sur 10 Sudeste 0 -- -- 84
2020-07-30 03:00:00 26.4 0 Calma 5 Sur 0 -- -- 78
2020-07-30 02:00:00 26.5 2 Sudoeste 8 Oeste 0 -- -- 79
2020-07-30 01:00:00 26.4 5 Este 9 Este 0 -- -- 89
2020-07-30 00:00:00 26.6 0 Calma 8 Sudeste 0 -- -- 89
2020-07-29 23:00:00 26.8 4 Este 10 Este 0 -- -- 90
2020-07-29 22:00:00 27.3 7 Este 12 Este 0 -- -- 85
2020-07-29 21:00:00 27.5 8 Norte 10 Norte 0 -- -- 84
2020-07-29 20:00:00 28.1 8 Norte 10 Nordeste 0 -- -- 82
2020-07-29 19:00:00 28.6 5 Nordeste 12 Este 0 -- -- 75
2020-07-29 18:00:00 28.7 11 Este 15 Este 0 -- -- 73
2020-07-29 17:00:00 29.6 2 Nordeste 13 Este 0 -- -- 71
2020-07-29 16:00:00 30.1 7 Este 15 Norte 0 -- -- 71
2020-07-29 15:00:00 31.6 7 Sudeste 14 Nordeste 0 -- -- 61
2020-07-29 14:00:00 32 10 Nordeste 16 Norte 0 -- -- 60
2020-07-29 13:00:00 31.1 7 Nordeste 14 Nordeste 0 -- -- 65
2020-07-29 12:00:00 29.2 8 Norte 17 Norte 0 -- -- 71
2020-07-29 11:00:00 27.9 14 Norte 24 Nordeste 0 -- -- 82
2020-07-29 10:00:00 27.6 12 Nordeste 22 Nordeste 0 -- -- 77
2020-07-29 09:00:00 27.1 17 Nordeste 24 Nordeste 0 -- -- 82
2020-07-29 08:00:00 26.7 16 Nordeste 23 Nordeste 0 -- -- 85
2020-07-29 07:00:00 26.3 11 Nordeste 26 Este 0 -- -- 87
2020-07-29 06:00:00 25.8 7 Norte 13 Nordeste 0 -- -- 90
2020-07-29 05:00:00 26.3 8 Noroeste 10 Norte 0 -- -- 84
2020-07-29 04:00:00 26.2 7 Norte 12 Norte 0 -- -- 88
2020-07-29 03:00:00 26.2 8 Noroeste 12 Noroeste 0 -- -- 89
2020-07-29 02:00:00 26.3 3 Nordeste 10 Nordeste 0 -- -- 94
2020-07-29 01:00:00 26.3 5 Nordeste 12 Norte 0 -- -- 92
2020-07-29 00:00:00 26.4 5 Norte 6 Norte 0 -- -- 90
2020-07-28 23:00:00 26.6 4 Nordeste 7 Este 0 -- -- 88
2020-07-28 22:00:00 27 4 Este 9 Sudeste 0 -- -- 85
2020-07-28 21:00:00 27.4 11 Sudeste 14 Sudeste 0 -- -- 80
2020-07-28 20:00:00 28.2 10 Sur 13 Sur 0 -- -- 78
2020-07-28 19:00:00 29 9 Sur 13 Sur 0 -- -- 75
2020-07-28 18:00:00 29.8 8 Sudeste 17 Sudeste 0 -- -- 73
2020-07-28 17:00:00 31.2 15 Sudeste 17 Sudeste 0 -- -- 66
2020-07-28 16:00:00 32.5 10 Sur 18 Sur 0 -- -- 62
2020-07-28 15:00:00 32.4 16 Sur 21 Sur 0 -- -- 63
2020-07-28 14:00:00 31.5 18 Sur 23 Sudeste 0 -- -- 67
2020-07-28 13:00:00 30.9 21 Sur 23 Sur 0 -- -- 70
2020-07-28 12:00:00 31.2 20 Sudeste 22 Sudeste 0 -- -- 70
2020-07-28 11:00:00 30.6 12 Sur 14 Sudeste 0 -- -- 63
2020-07-28 10:00:00 29.6 9 Este 18 Nordeste 0 -- -- 66
2020-07-28 09:00:00 29 17 Nordeste 20 Nordeste 0 -- -- 81
2020-07-28 08:00:00 27.4 18 Nordeste 20 Nordeste 0 -- -- 86
2020-07-28 07:00:00 25.7 13 Norte 24 Norte 0 -- -- 92
2020-07-28 06:00:00 25.3 14 Noroeste 21 Noroeste 0 -- -- 84
2020-07-28 05:00:00 25.5 3 Norte 6 Oeste 0 -- -- 94
2020-07-28 04:00:00 25.2 3 Sudoeste 6 Sur 0 -- -- 93
2020-07-28 03:00:00 25.5 0 Calma 9 Sur 0 -- -- 92
2020-07-28 02:00:00 25.8 5 Sudoeste 13 Sur 0 -- -- 89
2020-07-28 01:00:00 25.8 4 Sudoeste 17 Sudoeste 0 -- -- 89
2020-07-28 00:00:00 26.1 10 Sur 15 Sur 0 -- -- 88
2020-07-27 23:00:00 26.4 8 Sur 19 Sur 0 -- -- 87
2020-07-27 22:00:00 26.8 15 Sur 18 Sur 0 -- -- 84
2020-07-27 21:00:00 27.1 14 Sur 19 Sur 0 -- -- 80
2020-07-27 20:00:00 27.9 15 Sur 18 Sur 0 -- -- 76
2020-07-27 19:00:00 28.5 17 Sur 22 Sur 0 -- -- 72
2020-07-27 18:00:00 29.8 20 Sur 22 Sur 0 -- -- 68
2020-07-27 17:00:00 30.9 18 Sur 21 Sur 0 -- -- 64
2020-07-27 16:00:00 31.6 19 Sur 22 Sur 0 -- -- 61
2020-07-27 15:00:00 32 16 Sur 20 Sur 0 -- -- 57
2020-07-27 14:00:00 32.1 13 Sudeste 15 Sur 0 -- -- 60
2020-07-27 13:00:00 31.2 8 Sudeste 12 Este 0 -- -- 62
2020-07-27 12:00:00 30.4 8 Este 10 Este 0 -- -- 63
2020-07-27 09:00:00 28.5 9 Este 11 Este 0 -- -- 81
2020-07-27 08:00:00 27.4 3 Nordeste 7 Noroeste 0 -- -- 81
2020-07-27 07:00:00 25.3 6 Norte 11 Norte 0 -- -- 83
2020-07-27 06:00:00 25.1 9 Noroeste 10 Noroeste 0 -- -- 82
2020-07-27 05:00:00 25.1 4 Noroeste 8 Norte 0 -- -- 76
2020-07-27 04:00:00 25.3 3 Norte 6 Norte 0 -- -- 68
2020-07-27 03:00:00 25.1 2 Sudoeste 7 Sudoeste 0 -- -- 80
2020-07-27 02:00:00 25.4 3 Sudoeste 10 Sur 0 -- -- 80
2020-07-27 01:00:00 25.7 4 Sudoeste 14 Sur 0 -- -- 82
2020-07-27 00:00:00 26.3 10 Sur 15 Sudeste 0 -- -- 79
2020-07-26 23:00:00 26.6 13 Sudeste 16 Sudeste 0 -- -- 76
2020-07-26 22:00:00 26.8 12 Sudeste 15 Sudeste 0 -- -- 74
2020-07-26 21:00:00 26.9 13 Sudeste 16 Sur 0 -- -- 73
2020-07-26 20:00:00 27.3 14 Sudeste 18 Sur 0 -- -- 71
2020-07-26 19:00:00 28.2 15 Sudeste 19 Sudeste 0 -- -- 69
2020-07-26 18:00:00 29.4 15 Sudeste 21 Sudeste 0 -- -- 68
2020-07-26 17:00:00 30.3 17 Sudeste 21 Sudeste 0 -- -- 66
2020-07-26 16:00:00 30.9 17 Sudeste 19 Sudeste 0 -- -- 60
2020-07-26 15:00:00 32.4 14 Sur 16 Sur 0 -- -- 55
2020-07-26 14:00:00 31.1 9 Sudeste 13 Sur 0 -- -- 60
2020-07-26 13:00:00 30.2 8 Este 12 Este 0 -- -- 64
2020-07-26 12:00:00 29.4 8 Nordeste 13 Norte 0 -- -- 66
2020-07-26 11:00:00 30.4 11 Norte 13 Noroeste 0 -- -- 71
2020-07-26 10:00:00 29.2 8 Norte 13 Norte 0 -- -- 75
2020-07-26 09:00:00 28.6 2 Sudeste 7 Este 0 -- -- 76
2020-07-26 08:00:00 27.6 3 Sur 6 Oeste 0 -- -- 79
2020-07-26 07:00:00 24.8 3 Sudoeste 5 Sur 0 -- -- 90
2020-07-26 06:00:00 24.7 0 Calma 6 Sudoeste 0 -- -- 88
2020-07-26 05:00:00 24.9 0 Calma 9 Sur 0 -- -- 85
2020-07-26 04:00:00 24.9 0 Calma 10 Sur 0 -- -- 86
2020-07-26 03:00:00 24.9 5 Sudoeste 12 Sudoeste 0 -- -- 84
2020-07-26 02:00:00 25.1 5 Sudoeste 11 Sur 0 -- -- 83
2020-07-26 01:00:00 25.3 4 Sudoeste 12 Sur 0 -- -- 81
2020-07-26 00:00:00 25.6 5 Sudoeste 17 Sudoeste 0 -- -- 77
2020-07-25 23:00:00 25.8 4 Sudoeste 15 Sudoeste 0 -- -- 74
2020-07-25 22:00:00 26.2 4 Sudoeste 20 Sur 0 -- -- 71
2020-07-25 21:00:00 26.7 12 Sur 21 Sur 0 -- -- 70
2020-07-25 20:00:00 27.1 14 Sur 20 Sur 0 -- -- 69
2020-07-25 19:00:00 28.3 16 Sur 21 Sur 0 -- -- 62
2020-07-25 18:00:00 29.5 18 Sur 23 Sur 0 -- -- 62
2020-07-25 17:00:00 29.6 19 Sur 24 Sudeste 0 -- -- 60
2020-07-25 16:00:00 30.1 20 Sudeste 24 Sur 0 -- -- 59
2020-07-25 15:00:00 31 19 Sudeste 24 Sudeste 0 -- -- 55
2020-07-25 14:00:00 31 19 Sur 23 Sur 0 -- -- 59
2020-07-25 13:00:00 31.3 13 Sur 18 Sur 0 -- -- 62
2020-07-25 12:00:00 31.4 13 Sur 17 Sur 0 -- -- 59
2020-07-25 11:00:00 30.2 12 Sudeste 17 Sudeste 0 -- -- 58
2020-07-25 10:00:00 29.3 9 Sudeste 13 Sudeste 0 -- -- 65
2020-07-25 09:00:00 28.2 5 Este 10 Este 0 -- -- 77
2020-07-25 08:00:00 26.8 8 Nordeste 10 Nordeste 0 -- -- 84
2020-07-25 07:00:00 25 7 Nordeste 10 Nordeste 0 -- -- 93
2020-07-25 06:00:00 24.8 5 Norte 9 Norte 0 -- -- 91
2020-07-25 05:00:00 25 0 Calma -- -- 0 -- -- 91
2020-07-25 04:00:00 25.1 0 Calma 7 Oeste 0 -- -- 89
2020-07-25 03:00:00 24.9 0 Calma 10 Sudoeste 0 -- -- 86
2020-07-25 02:00:00 25.1 0 Calma 8 Sur 0 -- -- 90
2020-07-25 01:00:00 25.5 2 Sudoeste 15 Sur 0 -- -- 89
2020-07-25 00:00:00 25.9 12 Sur 15 Sur 0 -- -- 88
2020-07-24 23:00:00 26.1 12 Sur 16 Sur 0 -- -- 86
2020-07-24 22:00:00 26.3 11 Sur 17 Sur 0 -- -- 84
2020-07-24 21:00:00 26.7 12 Sur 17 Sur 0 -- -- 81
2020-07-24 20:00:00 27.5 14 Sur 18 Sur 0 -- -- 76
2020-07-24 19:00:00 28.7 13 Sur 17 Sur 0 -- -- 72
2020-07-24 18:00:00 28.4 4 Este 18 Norte 0 -- -- 67
2020-07-24 17:00:00 29.1 15 Norte 23 Norte 0 -- -- 65
2020-07-24 16:00:00 29.8 8 Nordeste 21 Norte 0 -- -- 66
2020-07-24 15:00:00 29.7 15 Norte 19 Norte 0 -- -- 66
2020-07-24 14:00:00 31.5 4 Norte 12 Noroeste 0 -- -- 58
2020-07-24 13:00:00 31.1 8 Norte 15 Noroeste 0 -- -- 59
2020-07-24 12:00:00 30.8 13 Noroeste 23 Noroeste 0 -- -- 68
2020-07-24 11:00:00 29.3 18 Norte 24 Norte 0 -- -- 74
2020-07-24 10:00:00 29.3 12 Norte 19 Noroeste 0 -- -- 73
2020-07-24 09:00:00 27.4 17 Norte 25 Noroeste 0 -- -- 79
2020-07-24 08:00:00 26.8 15 Noroeste 23 Noroeste 0 -- -- 84
2020-07-24 07:00:00 25 14 Noroeste 18 Noroeste 0 -- -- 93
2020-07-24 06:00:00 24.7 13 Noroeste 18 Noroeste 0 -- -- 91
2020-07-24 05:00:00 24.6 8 Noroeste 10 Noroeste 0 -- -- 91
2020-07-24 04:00:00 24.6 5 Noroeste 7 Noroeste 0 -- -- 89
2020-07-24 03:00:00 24.7 0 Calma 3 Noroeste 0 -- -- 88
2020-07-24 02:00:00 24.9 0 Calma 6 Sur 0 -- -- 87
2020-07-24 01:00:00 25.1 5 Sur 6 Sur 0 -- -- 85
2020-07-24 00:00:00 25.3 0 Calma 5 Sudoeste 0 -- -- 84
2020-07-23 23:00:00 25.7 4 Sudoeste 8 Noroeste 0 -- -- 82
2020-07-23 22:00:00 26.2 6 Noroeste 10 Noroeste 0 -- -- 81
2020-07-23 21:00:00 26.7 7 Norte 10 Norte 0 -- -- 79
2020-07-23 20:00:00 27.1 7 Norte 12 Noroeste 0 -- -- 77
2020-07-23 19:00:00 27.2 6 Norte 13 Norte 0 -- -- 78
2020-07-23 18:00:00 28.2 8 Norte 13 Norte 0 -- -- 76
2020-07-23 17:00:00 28.2 6 Nordeste 10 Nordeste 0 -- -- 77
2020-07-23 16:00:00 28.8 7 Nordeste 15 Nordeste 0 -- -- 74
2020-07-23 15:00:00 29.4 10 Norte 17 Norte 0 -- -- 71
2020-07-23 14:00:00 29.3 12 Norte 17 Norte 0 -- -- 70
2020-07-23 13:00:00 29.1 15 Norte 17 Norte 0 -- -- 71
2020-07-23 12:00:00 30.5 10 Norte 14 Norte 0 -- -- 66
2020-07-23 11:00:00 29.9 7 Norte 10 Sudeste 0 -- -- 73
2020-07-23 10:00:00 28.8 5 Este 9 Este 0 -- -- 77
2020-07-23 09:00:00 29 2 Norte 5 Noroeste 0 -- -- 72
2020-07-23 08:00:00 26.3 2 Norte 13 Noroeste 0 -- -- 85
2020-07-23 07:00:00 25.4 13 Noroeste 21 Noroeste 0 -- -- 92
2020-07-23 06:00:00 25.6 18 Noroeste 23 Noroeste 0 -- -- 88
2020-07-23 05:00:00 26.4 15 Norte 25 Noroeste 0 -- -- 66
2020-07-23 04:00:00 26.7 13 Noroeste 16 Noroeste 0 -- -- 46
2020-07-23 03:00:00 26.7 11 Oeste 19 Sudoeste 0 -- -- 44
2020-07-23 02:00:00 26.1 3 Sudoeste 19 Sur 0 -- -- 66
2020-07-23 01:00:00 26.7 20 Sudeste 31 Sudeste 0 -- -- 62
2020-07-23 00:00:00 25.9 10 Este 18 Este 0 -- -- 80
2020-07-22 23:00:00 26 4 Norte 10 Noroeste 0 -- -- 70
2020-07-22 22:00:00 26.8 2 Nordeste 14 Oeste 0 -- -- 52
2020-07-22 21:00:00 26 5 Noroeste 24 Sur 0 -- -- 70
2020-07-22 20:00:00 26.8 16 Sur 42 Sudeste 0 -- -- 73
2020-07-22 19:00:00 26.8 40 Sudeste 44 Sudeste 0 -- -- 72
2020-07-22 18:00:00 27.2 35 Sudeste 41 Sudeste 0 -- -- 68
2020-07-22 17:00:00 28.2 18 Este 21 Este 0 -- -- 61
2020-07-22 16:00:00 29.6 6 Nordeste 10 Nordeste 0 -- -- 58
2020-07-22 15:00:00 29.8 4 Este 9 Sur 0 -- -- 59
2020-07-22 14:00:00 30.1 7 Sudeste 16 Sudeste 0 -- -- 60
2020-07-22 13:00:00 29.3 14 Sudeste 17 Sudeste 0 -- -- 62
2020-07-22 12:00:00 28 13 Sudeste 19 Este 0 -- -- 67
2020-07-22 11:00:00 28.5 11 Nordeste 14 Nordeste 0 -- -- 70
2020-07-22 10:00:00 28.4 8 Nordeste 10 Nordeste 0 -- -- 72
2020-07-22 09:00:00 27.5 7 Nordeste 11 Nordeste 0 -- -- 75
2020-07-22 08:00:00 26.1 9 Nordeste 12 Nordeste 0 -- -- 81
2020-07-22 07:00:00 25.4 8 Nordeste 15 Este 0 -- -- 83
2020-07-22 06:00:00 25 11 Este 19 Este 0 -- -- 84
2020-07-22 05:00:00 25.1 15 Este 19 Este 0 -- -- 83
2020-07-22 04:00:00 24.9 11 Este 14 Este 0 -- -- 85
2020-07-22 03:00:00 24.6 3 Nordeste 8 Norte 0 -- -- 89
2020-07-22 02:00:00 25 3 Nordeste 10 Sudeste 0 -- -- 87
2020-07-22 01:00:00 25.1 9 Sudeste 16 Sudeste 0 -- -- 85
2020-07-22 00:00:00 25.7 16 Sudeste 25 Este 0 -- -- 82
2020-07-21 23:00:00 25.7 21 Sudeste 28 Sudeste 0 -- -- 81
2020-07-21 22:00:00 25.8 23 Sudeste 28 Sudeste 0 -- -- 82
2020-07-21 21:00:00 25.9 23 Sudeste 27 Sudeste 0 -- -- 77
2020-07-21 20:00:00 26.2 22 Sudeste 27 Sudeste 0 -- -- 80
2020-07-21 19:00:00 26.5 21 Sudeste 26 Sudeste 0 -- -- 80
2020-07-21 18:00:00 27.7 20 Sudeste 24 Sudeste 0 -- -- 72
2020-07-21 17:00:00 28.7 18 Sudeste 23 Sudeste 0 -- -- 66
2020-07-21 16:00:00 29.4 17 Sudeste 20 Sudeste 0 -- -- 61
2020-07-21 15:00:00 30 13 Sudeste 17 Sudeste 0 -- -- 62
2020-07-21 14:00:00 29.8 13 Sudeste 17 Sudeste 0 -- -- 63
2020-07-21 13:00:00 29.5 12 Sudeste 19 Sudeste 0 -- -- 67
2020-07-21 12:00:00 27.8 16 Este 21 Sudeste 0 -- -- 74
2020-07-21 11:00:00 28.1 15 Este 22 Este 0 -- -- 75
2020-07-21 10:00:00 27.6 15 Este 19 Este 0 -- -- 74
2020-07-21 09:00:00 27.1 10 Este 15 Nordeste 0 -- -- 76
2020-07-21 08:00:00 25.9 10 Este 16 Este 0 -- -- 82
2020-07-21 07:00:00 24.4 13 Este 16 Este 0 -- -- 89
2020-07-21 06:00:00 24.3 12 Sudeste 16 Este 0 -- -- 88
2020-07-21 05:00:00 24.3 10 Sudeste 15 Sudeste 0 -- -- 88
2020-07-21 04:00:00 24.3 10 Sudeste 20 Sudeste 0 -- -- 87
2020-07-21 03:00:00 24.5 15 Sudeste 22 Sudeste 0 -- -- 85
2020-07-21 02:00:00 24.7 15 Sudeste 19 Sudeste 0 -- -- 88
2020-07-21 01:00:00 24.6 12 Sur 18 Sudeste 0 -- -- 89
2020-07-21 00:00:00 24.7 15 Sudeste 18 Sur 0 -- -- 87
2020-07-20 23:00:00 24.9 16 Sudeste 22 Sur 0 -- -- 88
2020-07-20 22:00:00 24.9 16 Sudeste 20 Sudeste 0 -- -- 85
2020-07-20 21:00:00 25.2 13 Sur 17 Sur 0 -- -- 83
2020-07-20 20:00:00 25.8 13 Sur 20 Sur 0 -- -- 81
2020-07-20 19:00:00 26.5 17 Sur 22 Sur 0 -- -- 76
2020-07-20 18:00:00 27.4 18 Sur 24 Sur 0 -- -- 74
2020-07-20 17:00:00 28.9 18 Sur 25 Sur 0 -- -- 66
2020-07-20 16:00:00 29.4 19 Sur 25 Sur 0 -- -- 64
2020-07-20 15:00:00 29.8 18 Sur 23 Sur 0 -- -- 64
2020-07-20 14:00:00 30.3 18 Sur 23 Sur 0 -- -- 61
2020-07-20 13:00:00 29.7 18 Sur 24 Sur 0 -- -- 63
2020-07-20 12:00:00 29 22 Sur 26 Sur 0 -- -- 66
2020-07-20 11:00:00 28.7 17 Sur 21 Sudeste 0 -- -- 67
2020-07-20 10:00:00 27.5 17 Sur 22 Sudeste 0 -- -- 73
2020-07-20 09:00:00 27.2 18 Sudeste 21 Sur 0 -- -- 74
2020-07-20 08:00:00 26.1 9 Sur 16 Sudeste 0 -- -- 80
2020-07-20 07:00:00 24 8 Sur 11 Sur 0 -- -- 90
2020-07-20 06:00:00 23.4 3 Sudoeste 9 Sur 0 -- -- 90
2020-07-20 05:00:00 23.6 0 Calma 8 Oeste 0 -- -- 87
2020-07-20 04:00:00 23.7 0 Calma 6 Oeste 0 -- -- 84
2020-07-20 03:00:00 23.5 3 Sudoeste 5 Oeste 0 -- -- 82
2020-07-20 02:00:00 23.7 0 Calma 5 Sur 0 -- -- 81
2020-07-20 01:00:00 24 0 Calma 10 Sudoeste 0 -- -- 82
2020-07-20 00:00:00 24.4 0 Calma 11 Sur 0 -- -- 83
2020-07-19 23:00:00 24.8 4 Oeste 19 Sudoeste 0 -- -- 84
2020-07-19 22:00:00 25.4 10 Sudoeste 25 Sudoeste 0 -- -- 81
2020-07-19 21:00:00 25.6 15 Sur 25 Sur 0 -- -- 80
2020-07-19 20:00:00 25.9 21 Sur 26 Sur 0 -- -- 78
2020-07-19 19:00:00 26.2 18 Sur 26 Sur 0 -- -- 75
2020-07-19 18:00:00 26.9 18 Sur 25 Sur 0 -- -- 72
2020-07-19 17:00:00 27.6 18 Sur 27 Sur 0 -- -- 69
2020-07-19 16:00:00 30.5 17 Sur 21 Sur 0 -- -- 62
2020-07-19 15:00:00 28.8 9 Sur 12 Sudeste 0 -- -- 67
2020-07-19 14:00:00 28.9 8 Nordeste 16 Nordeste 0 -- -- 68
2020-07-19 13:00:00 29.1 11 Nordeste 16 Norte 0 -- -- 67
2020-07-19 12:00:00 29.7 13 Norte 19 Norte 0 -- -- 64
2020-07-19 11:00:00 28.1 15 Norte 21 Norte 0 -- -- 69
2020-07-19 10:00:00 27.1 17 Norte 24 Norte 0 -- -- 73
2020-07-19 09:00:00 26.4 15 Norte 22 Norte 0 -- -- 75
2020-07-19 08:00:00 26.2 8 Norte 16 Oeste 0 -- -- 74
2020-07-19 07:00:00 23 9 Noroeste 15 Noroeste 0 -- -- 83
2020-07-19 06:00:00 22.8 5 Oeste 8 Noroeste 0 -- -- 86
2020-07-19 05:00:00 23.1 0 Calma 7 Noroeste 0 -- -- 85
2020-07-19 04:00:00 23 5 Noroeste 8 Noroeste 0 -- -- 85
2020-07-19 03:00:00 23.5 3 Noroeste 6 Noroeste 0 -- -- 86
2020-07-19 02:00:00 23.6 5 Noroeste 12 Noroeste 0 -- -- 84
2020-07-19 01:00:00 23.8 10 Noroeste 12 Noroeste 0 -- -- 82
2020-07-19 00:00:00 23.9 8 Oeste 12 Oeste 0 -- -- 80
2020-07-18 23:00:00 24.3 5 Noroeste 7 Noroeste 0 -- -- 80
2020-07-18 22:00:00 24.7 4 Sur 12 Sudoeste 0 -- -- 80
2020-07-18 21:00:00 25 8 Sudoeste 19 Sur 0 -- -- 77
2020-07-18 20:00:00 25.3 13 Sur 19 Sur 0 -- -- 74
2020-07-18 19:00:00 25.8 13 Sur 19 Sudoeste 0 -- -- 74
2020-07-18 18:00:00 25.9 13 Sur 24 Sur 0 -- -- 68
2020-07-18 17:00:00 26.2 20 Sur 30 Sur 0 -- -- 67
2020-07-18 16:00:00 27 16 Sur 26 Sudoeste 0 -- -- 63
2020-07-18 15:00:00 26.3 6 Sudoeste 25 Sudeste 0 -- -- 65
2020-07-18 14:00:00 29.7 21 Sur 25 Sur 0 -- -- 51
2020-07-18 13:00:00 29.2 16 Sur 20 Sur 0 -- -- 51
2020-07-18 12:00:00 28.2 11 Sur 16 Sudeste 0 -- -- 55
2020-07-18 11:00:00 27.7 11 Sudeste 16 Este 0 -- -- 55
2020-07-18 10:00:00 27.1 11 Este 20 Este 0 -- -- 56
2020-07-18 09:00:00 26.6 13 Este 23 Este 0 -- -- 58
2020-07-18 08:00:00 25.3 16 Nordeste 24 Nordeste 0 -- -- 63
2020-07-18 07:00:00 23.5 7 Noroeste 13 Noroeste 0 -- -- 80
2020-07-18 06:00:00 22.6 7 Noroeste 12 Noroeste 0 -- -- 82
2020-07-18 05:00:00 22.8 8 Oeste 10 Oeste 0 -- -- 80
2020-07-18 04:00:00 22.8 9 Oeste 13 Oeste 0 -- -- 78
2020-07-18 03:00:00 22.4 4 Sudoeste 9 Sur 0 -- -- 79
2020-07-18 02:00:00 22.8 3 Sudoeste 10 Sudoeste 0 -- -- 76
2020-07-18 01:00:00 23.3 0 Calma 10 Sur 0 -- -- 75
2020-07-18 00:00:00 23.1 0 Calma 11 Sur 0 -- -- 76
2020-07-17 23:00:00 23.7 10 Sur 16 Sudeste 0 -- -- 73
2020-07-17 22:00:00 23.9 12 Sur 21 Sudeste 0 -- -- 72
2020-07-17 21:00:00 24.2 17 Sur 25 Sudeste 0 -- -- 70
2020-07-17 20:00:00 24.5 21 Sudeste 26 Sudeste 0 -- -- 69
2020-07-17 19:00:00 25.3 20 Sudeste 25 Sur 0 -- -- 68
2020-07-17 18:00:00 27.1 17 Sur 23 Sur 0 -- -- 62
2020-07-17 17:00:00 27.3 10 Sudeste 13 Sudeste 0 -- -- 54
2020-07-17 16:00:00 26.9 7 Nordeste 14 Nordeste 0 -- -- 59
2020-07-17 15:00:00 27.6 9 Nordeste 21 Nordeste 0 -- -- 56
2020-07-17 14:00:00 27.8 15 Nordeste 24 Nordeste 0 -- -- 52
2020-07-17 13:00:00 26.3 20 Nordeste 27 Nordeste 0 -- -- 55
2020-07-17 12:00:00 27.3 16 Nordeste 25 Norte 0 -- -- 53
2020-07-17 11:00:00 27.3 14 Nordeste 26 Norte 0 -- -- 53
2020-07-17 10:00:00 27.2 17 Nordeste 23 Nordeste 0 -- -- 55
2020-07-17 09:00:00 24.5 18 Nordeste 26 Nordeste 0 -- -- 69
2020-07-17 08:00:00 23.4 6 Noroeste 14 Noroeste 0 -- -- 80
2020-07-17 07:00:00 22.8 0 Calma 4 Noroeste 0 -- -- 82
2020-07-17 06:00:00 22.6 3 Norte 6 Noroeste 0 -- -- 80
2020-07-17 05:00:00 22.3 7 Oeste 11 Oeste 0 -- -- 80
2020-07-17 04:00:00 22.3 6 Sudoeste 10 Sudoeste 0 -- -- 80
2020-07-17 03:00:00 22.4 5 Sudoeste 9 Oeste 0 -- -- 80
2020-07-17 02:00:00 22.6 0 Calma 6 Sur 0 -- -- 80
2020-07-17 01:00:00 22.7 3 Sur 8 Sudoeste 0 -- -- 79
2020-07-17 00:00:00 22.9 5 Sur 13 Sur 0 -- -- 79
2020-07-16 23:00:00 23.2 7 Sur 14 Sur 0 -- -- 78
2020-07-16 22:00:00 23.4 8 Sur 16 Sudeste 0 -- -- 76
2020-07-16 21:00:00 23.9 10 Sur 16 Sudeste 0 -- -- 73
2020-07-16 20:00:00 24.3 11 Sur 15 Sur 0 -- -- 71
2020-07-16 19:00:00 24.9 8 Sur 15 Sur 0 -- -- 67
2020-07-16 18:00:00 24.6 7 Sur 18 Sur 0 -- -- 68
2020-07-16 17:00:00 25.7 12 Sur 19 Sur 0 -- -- 65
2020-07-16 16:00:00 25 12 Sur 19 Sudeste 0 -- -- 67
2020-07-16 15:00:00 25.2 15 Sudeste 22 Sudeste 0 -- -- 65
2020-07-16 14:00:00 27.2 13 Sudeste 20 Sudeste 0 -- -- 57
2020-07-16 13:00:00 26.7 12 Sudeste 20 Sudeste 0 -- -- 60
2020-07-16 12:00:00 25.6 9 Este 16 Sudeste 0 -- -- 65
2020-07-16 11:00:00 24.2 8 Sudeste 17 Sudeste 0 -- -- 68
2020-07-16 10:00:00 24.1 10 Sudeste 21 Este 0 -- -- 71
2020-07-16 09:00:00 25.6 14 Este 24 Este 0 -- -- 63
2020-07-16 08:00:00 24.6 19 Este 25 Nordeste 0 -- -- 69
2020-07-16 07:00:00 23.4 21 Este 27 Este 0 -- -- 78
2020-07-16 06:00:00 23.4 17 Este 23 Este 0 -- -- 75
2020-07-16 05:00:00 23.5 15 Este 21 Este 0 -- -- 76
2020-07-16 04:00:00 23.7 14 Este 19 Este 0 -- -- 74
2020-07-16 03:00:00 23.8 14 Sudeste 20 Sudeste 0 -- -- 74
2020-07-16 02:00:00 23.9 15 Sudeste 19 Sudeste 0 -- -- 74
2020-07-16 01:00:00 23.9 14 Sur 21 Sudeste 0 -- -- 75
2020-07-16 00:00:00 24 17 Sudeste 23 Sur 0 -- -- 75
2020-07-15 23:00:00 24.2 19 Sur 26 Sur 0 -- -- 75
2020-07-15 22:00:00 24.4 19 Sur 26 Sudeste 0 -- -- 73
2020-07-15 21:00:00 25 14 Sur 21 Sur 0 -- -- 73
2020-07-15 20:00:00 25.3 15 Sur 21 Sur 0 -- -- 71
2020-07-15 19:00:00 26.5 11 Sur 16 Sur 0 -- -- 62
2020-07-15 18:00:00 27.8 8 Sur 12 Sur 0 -- -- 56
2020-07-15 17:00:00 28.8 8 Sur 14 Sur 0 -- -- 56
2020-07-15 16:00:00 27.7 8 Sudeste 16 Este 0 -- -- 60
2020-07-15 15:00:00 27.9 6 Este 12 Este 0 -- -- 57
2020-07-15 14:00:00 28 6 Este 13 Este 0 -- -- 57
2020-07-15 13:00:00 28 8 Nordeste 14 Nordeste 0 -- -- 57
2020-07-15 12:00:00 27.9 7 Nordeste 11 Nordeste 0 -- -- 55
2020-07-15 11:00:00 27.6 6 Nordeste 12 Nordeste 0 -- -- 61
2020-07-15 10:00:00 26.7 5 Nordeste 10 Nordeste 0 -- -- 64
2020-07-15 09:00:00 26.8 3 Nordeste 10 Norte 0 -- -- 64
2020-07-15 08:00:00 25.4 4 Norte 7 Norte 0 -- -- 68
2020-07-15 07:00:00 23 0 Calma 6 Norte 0 -- -- 74
2020-07-15 06:00:00 22.7 3 Nordeste 5 Norte 0 -- -- 76
2020-07-15 05:00:00 22.6 4 Nordeste 11 Este 0 -- -- 75
2020-07-15 04:00:00 22.3 7 Sudeste 17 Sudeste 0 -- -- 77
2020-07-15 03:00:00 22.2 10 Sudeste 20 Sudeste 0 -- -- 73
2020-07-15 02:00:00 21.4 13 Este 32 Este 0.9 -- -- 76
2020-07-15 01:00:00 21.5 15 Norte 42 Norte 2.7 -- -- 73
2020-07-15 00:00:00 24.8 11 Noroeste 37 Oeste 0.1 -- -- 66
2020-07-14 23:00:00 24.8 17 Norte 23 Norte 0 -- -- 66
2020-07-14 22:00:00 24.8 16 Norte 21 Norte 0 -- -- 63
2020-07-14 21:00:00 24.9 17 Norte 22 Norte 0 -- -- 64
2020-07-14 20:00:00 25.5 18 Norte 26 Norte 0 -- -- 60
2020-07-14 19:00:00 26.1 22 Norte 31 Norte 0 -- -- 59
2020-07-14 18:00:00 26.9 26 Norte 31 Norte 0 -- -- 59
2020-07-14 17:00:00 27.8 28 Norte 32 Norte 0 -- -- 55
2020-07-14 16:00:00 28.9 26 Norte 32 Norte 0 -- -- 50
2020-07-14 15:00:00 29.7 26 Norte 33 Norte 0 -- -- 51
2020-07-14 14:00:00 27.7 24 Norte 32 Norte 0 -- -- 57
2020-07-14 13:00:00 27.9 28 Norte 33 Norte 0 -- -- 56
2020-07-14 12:00:00 28.8 12 Norte 21 Noroeste 0 -- -- 58
2020-07-14 11:00:00 28.5 15 Noroeste 19 Norte 0 -- -- 69
2020-07-14 10:00:00 28.1 12 Noroeste 15 Noroeste 0 -- -- 70
2020-07-14 09:00:00 27.4 9 Noroeste 18 Noroeste 0 -- -- 71
2020-07-14 08:00:00 25.9 12 Noroeste 17 Norte 0 -- -- 74
2020-07-14 07:00:00 24.3 13 Noroeste 17 Norte 0 -- -- 84
2020-07-14 06:00:00 24.1 10 Norte 23 Noroeste 0 -- -- 84
2020-07-14 05:00:00 24.3 17 Norte 20 Norte 0 -- -- 82
2020-07-14 04:00:00 24.4 15 Norte 19 Norte 0 -- -- 80
2020-07-14 03:00:00 24.5 13 Norte 16 Norte 0 -- -- 75
2020-07-14 02:00:00 24.4 8 Norte 14 Norte 0 -- -- 80
2020-07-14 01:00:00 24.5 9 Norte 14 Norte 0 -- -- 75
2020-07-14 00:00:00 24.7 8 Norte 19 Norte 0 -- -- 76
2020-07-13 23:00:00 24.9 16 Norte 22 Norte 0 -- -- 77
2020-07-13 22:00:00 25 21 Norte 26 Norte 0 -- -- 81
2020-07-13 21:00:00 25 22 Norte 28 Norte 0 -- -- 79
2020-07-13 20:00:00 25.3 24 Norte 33 Norte 0 -- -- 79
2020-07-13 19:00:00 25.7 26 Norte 31 Noroeste 0 -- -- 77
2020-07-13 18:00:00 26.9 24 Norte 30 Norte 0 -- -- 73
2020-07-13 17:00:00 27.5 25 Norte 32 Norte 0 -- -- 69
2020-07-13 16:00:00 28.6 26 Norte 34 Norte 0 -- -- 64
2020-07-13 15:00:00 28.1 26 Norte 28 Norte 0 -- -- 65
2020-07-13 14:00:00 29.4 23 Norte 28 Norte 0 -- -- 59
2020-07-13 13:00:00 28.7 24 Norte 29 Norte 0 -- -- 57
2020-07-13 12:00:00 26.7 25 Norte 28 Norte 0 -- -- 63
2020-07-13 11:00:00 26.5 19 Norte 24 Norte 0 -- -- 64
2020-07-13 10:00:00 26.1 19 Norte 27 Norte 0 -- -- 63
2020-07-13 09:00:00 25.2 19 Norte 26 Norte 0 -- -- 63
2020-07-13 08:00:00 25 21 Norte 35 Nordeste 0 -- -- 73
2020-07-13 07:00:00 24.9 31 Nordeste 36 Norte 0 -- -- 74
2020-07-13 06:00:00 24.7 21 Nordeste 26 Norte 0 -- -- 75
2020-07-13 05:00:00 24.6 9 Noroeste 17 Noroeste 0 -- -- 66
2020-07-13 04:00:00 25 5 Nordeste 15 Este 0 -- -- 69
2020-07-13 03:00:00 24.8 0 Calma 12 Sur 0 -- -- 51
2020-07-13 02:00:00 24.8 4 Sudoeste 15 Sur 0 -- -- 53
2020-07-13 01:00:00 25 8 Sudeste 12 Sudeste 0 -- -- 49
2020-07-13 00:00:00 24.7 4 Noroeste 10 Oeste 0 -- -- 59
2020-07-12 23:00:00 24.6 10 Noroeste 17 Norte 0 -- -- 62
2020-07-12 22:00:00 25.3 17 Norte 21 Norte 0 -- -- 61
2020-07-12 21:00:00 25.6 13 Noroeste 20 Norte 0 -- -- 59
2020-07-12 20:00:00 26.4 13 Norte 22 Norte 0 -- -- 61
2020-07-12 19:00:00 27.2 4 Este 17 Sur 0 -- -- 59
2020-07-12 18:00:00 27.4 15 Sudeste 28 Noroeste 0 -- -- 64
2020-07-12 17:00:00 29.1 19 Norte 28 Norte 0 -- -- 56
2020-07-12 16:00:00 27.2 22 Norte 29 Norte 0 -- -- 60
2020-07-12 15:00:00 26.6 22 Norte 31 Norte 0 -- -- 58
2020-07-12 14:00:00 28.4 21 Norte 27 Norte 0 -- -- 51
2020-07-12 13:00:00 28.6 20 Norte 25 Norte 0 -- -- 58
2020-07-12 12:00:00 29.5 18 Norte 22 Norte 0 -- -- 60
2020-07-12 11:00:00 29.2 14 Noroeste 18 Norte 0 -- -- 62
2020-07-12 10:00:00 28 12 Norte 23 Nordeste 0 -- -- 63
2020-07-12 09:00:00 27 16 Norte 24 Norte 0 -- -- 64
2020-07-12 08:00:00 26 17 Norte 24 Norte 0 -- -- 75
2020-07-12 07:00:00 24.7 14 Norte 22 Norte 0 -- -- 76
2020-07-12 06:00:00 24 15 Norte 21 Norte 0 -- -- 78
2020-07-12 05:00:00 23.6 10 Norte 13 Norte 0 -- -- 77
2020-07-12 04:00:00 23.7 7 Norte 11 Norte 0 -- -- 76
2020-07-12 03:00:00 23.8 7 Norte 13 Nordeste 0 -- -- 76
2020-07-12 02:00:00 23.8 7 Nordeste 12 Nordeste 0 -- -- 73
2020-07-12 01:00:00 23.9 8 Nordeste 14 Nordeste 0 -- -- 78
2020-07-12 00:00:00 24.4 9 Nordeste 13 Este 0 -- -- 74
2020-07-11 23:00:00 24.5 8 Este 18 Nordeste 0 -- -- 74
2020-07-11 22:00:00 24.7 14 Nordeste 21 Norte 0 -- -- 77
2020-07-11 21:00:00 24.7 18 Norte 27 Norte 0 -- -- 81
2020-07-11 20:00:00 25.1 24 Norte 30 Norte 0 -- -- 80
2020-07-11 19:00:00 25.6 26 Norte 32 Norte 0 -- -- 76
2020-07-11 18:00:00 25.7 24 Norte 32 Norte 0 -- -- 74
2020-07-11 17:00:00 26.3 26 Norte 31 Norte 0 -- -- 76
2020-07-11 16:00:00 26.6 25 Norte 35 Nordeste 0 -- -- 73
2020-07-11 15:00:00 26.5 28 Norte 37 Nordeste 0 -- -- 73
2020-07-11 14:00:00 26.5 29 Norte 41 Norte 0 -- -- 75
2020-07-11 13:00:00 26.4 33 Norte 41 Nordeste 0 -- -- 76
2020-07-11 12:00:00 26.4 31 Norte 39 Norte 0 -- -- 76
2020-07-11 11:00:00 27 31 Norte 39 Norte 0 -- -- 73
2020-07-11 10:00:00 27 31 Nordeste 44 Nordeste 0 -- -- 71
2020-07-11 09:00:00 26.8 32 Nordeste 38 Nordeste 0 -- -- 69
2020-07-11 08:00:00 25.4 27 Norte 35 Norte 0 -- -- 79
2020-07-11 07:00:00 24.6 21 Nordeste 26 Nordeste 0 -- -- 87
2020-07-11 06:00:00 24.4 19 Norte 26 Nordeste 0 -- -- 87
2020-07-11 05:00:00 24.5 22 Nordeste 26 Nordeste 0 -- -- 85
2020-07-11 04:00:00 24.5 20 Nordeste 24 Nordeste 0 -- -- 92
2020-07-11 03:00:00 24.5 13 Noroeste 16 Norte 0 -- -- 88
2020-07-11 02:00:00 24.7 2 Norte 6 Oeste 0 -- -- 86
2020-07-11 01:00:00 24.6 3 Sudoeste 10 Sur 0 -- -- 86
2020-07-11 00:00:00 25 8 Sur 20 Sudoeste 0 -- -- 85
2020-07-10 23:00:00 25.4 15 Sur 21 Sur 0 -- -- 82
2020-07-10 22:00:00 25.4 9 Sur 22 Sudeste 0 -- -- 81
2020-07-10 21:00:00 25.8 17 Sudeste 24 Sur 0 -- -- 82
2020-07-10 20:00:00 25.9 12 Este 19 Sudeste 0 -- -- 77
2020-07-10 19:00:00 26.4 13 Sudeste 18 Sudeste 0 -- -- 78
2020-07-10 18:00:00 27.1 10 Este 15 Sudeste 0 -- -- 76
2020-07-10 17:00:00 28.8 9 Sudeste 13 Sur 0 -- -- 74
2020-07-10 16:00:00 28.7 15 Sur 23 Sur 0 -- -- 79
2020-07-10 15:00:00 28.9 11 Sudeste 22 Sur 0 -- -- 77
2020-07-10 14:00:00 26.7 13 Sur 31 Sur 0 -- -- 85
2020-07-10 13:00:00 27.6 20 Sur 36 Sur 0 -- -- 72
2020-07-10 12:00:00 26.7 13 Este 25 Este 0 -- -- 73
2020-07-10 11:00:00 26.8 16 Sudeste 28 Este 0 -- -- 72
2020-07-10 10:00:00 25.9 23 Nordeste 31 Nordeste 0 -- -- 81
2020-07-10 09:00:00 25.2 17 Este 45 Sudeste 0 -- -- 81
2020-07-10 08:00:00 25.8 17 Sur 58 Este 0 -- -- 68
2020-07-10 07:00:00 24.8 6 Este 24 Norte 0 -- -- 87
2020-07-10 06:00:00 24.5 19 Nordeste 27 Norte 0 -- -- 89
2020-07-10 05:00:00 24.3 5 Nordeste 9 Norte 0 -- -- 89
2020-07-10 04:00:00 24.3 2 Sudeste 10 Noroeste 0 -- -- 86
2020-07-10 03:00:00 24.2 9 Oeste 13 Oeste 0 -- -- 85
2020-07-10 02:00:00 24.5 3 Este 13 Este 0 -- -- 85
2020-07-10 01:00:00 24.6 7 Nordeste 12 Sur 0 -- -- 84
2020-07-10 00:00:00 24.9 12 Sur 18 Sudeste 0 -- -- 81
2020-07-09 23:00:00 25.1 14 Sudeste 22 Sudeste 0 -- -- 83
2020-07-09 22:00:00 25.4 17 Sudeste 23 Sudeste 0 -- -- 81
2020-07-09 21:00:00 25.4 18 Este 23 Este 0 -- -- 83
2020-07-09 20:00:00 25.8 14 Este 21 Este 0 -- -- 78
2020-07-09 19:00:00 26.2 17 Sudeste 21 Sur 0 -- -- 75
2020-07-09 18:00:00 27 20 Sur 24 Sur 0 -- -- 73
2020-07-09 17:00:00 27.7 18 Sur 27 Sur 0 -- -- 71
2020-07-09 16:00:00 27.4 14 Sudeste 17 Sudeste 0 -- -- 70
2020-07-09 15:00:00 28.2 10 Este 16 Sudeste 0 -- -- 69
2020-07-09 14:00:00 29.3 9 Sudeste 16 Este 0 -- -- 63
2020-07-09 13:00:00 27.4 19 Este 23 Este 0 -- -- 71
2020-07-09 12:00:00 29.2 14 Sudeste 17 Sudeste 0 -- -- 61
2020-07-09 11:00:00 28.3 8 Sudeste 12 Sudeste 0 -- -- 61
2020-07-09 10:00:00 28 5 Norte 10 Norte 0 -- -- 68
2020-07-09 09:00:00 27.2 3 Norte 7 Nordeste 0 -- -- 70
2020-07-09 08:00:00 25.7 0 Calma 14 Sudeste 0 -- -- 79
2020-07-09 07:00:00 24.4 12 Sur 18 Sur 0 -- -- 84
2020-07-09 06:00:00 24.2 11 Sur 22 Sudeste 0 -- -- 83
2020-07-09 05:00:00 24.4 21 Sudeste 24 Sur 0 -- -- 81
2020-07-09 04:00:00 24.5 18 Este 21 Sudeste 0 -- -- 85
2020-07-09 03:00:00 24.2 11 Nordeste 14 Norte 0 -- -- 79
2020-07-09 02:00:00 24.5 11 Noroeste 15 Noroeste 0 -- -- 76
2020-07-09 01:00:00 24.6 10 Noroeste 16 Norte 0 -- -- 79
2020-07-09 00:00:00 24.6 4 Norte 15 Oeste 0 -- -- 71
2020-07-08 23:00:00 25.2 11 Noroeste 18 Oeste 0 -- -- 52
2020-07-08 22:00:00 24.8 5 Oeste 18 Noroeste 0 -- -- 65
2020-07-08 21:00:00 25.5 14 Noroeste 21 Norte 0 -- -- 63
2020-07-08 20:00:00 25.9 12 Noroeste 15 Noroeste 0 -- -- 63
2020-07-08 19:00:00 25.9 13 Norte 20 Norte 0 -- -- 62
2020-07-08 18:00:00 26.2 14 Norte 25 Norte 0 -- -- 62
2020-07-08 17:00:00 28.5 22 Norte 28 Noroeste 0 -- -- 61
2020-07-08 16:00:00 29.3 19 Noroeste 25 Noroeste 0 -- -- 58
2020-07-08 15:00:00 29.5 21 Norte 27 Noroeste 0 -- -- 55
2020-07-08 14:00:00 29.7 20 Norte 24 Noroeste 0 -- -- 55
2020-07-08 13:00:00 29.6 19 Norte 25 Noroeste 0 -- -- 53
2020-07-08 12:00:00 28.9 20 Norte 26 Norte 0 -- -- 58
2020-07-08 11:00:00 28 19 Noroeste 22 Noroeste 0 -- -- 68
2020-07-08 10:00:00 27.4 15 Noroeste 18 Noroeste 0 -- -- 73
2020-07-08 09:00:00 27 11 Noroeste 17 Noroeste 0 -- -- 75
2020-07-08 08:00:00 26.2 9 Noroeste 10 Noroeste 0 -- -- 72
2020-07-08 07:00:00 24.1 4 Norte 12 Noroeste 0 -- -- 73
2020-07-08 06:00:00 22.7 11 Oeste 14 Oeste 0 -- -- 89
2020-07-08 05:00:00 23.2 4 Noroeste 10 Noroeste 0 -- -- 92
2020-07-08 04:00:00 23.2 8 Noroeste 11 Noroeste 0 -- -- 90
2020-07-08 03:00:00 23.4 9 Oeste 12 Oeste 0 -- -- 89
2020-07-08 02:00:00 23.5 4 Sudoeste 9 Sudoeste 0 -- -- 87
2020-07-08 01:00:00 23.9 2 Sudoeste 5 Oeste 0 -- -- 85
2020-07-08 00:00:00 23.9 2 Sudoeste 10 Sur 0 -- -- 86